sensor_id;sensor_type;location;lat;lon;timestamp;P1;durP1;ratioP1;P2;durP2;ratioP2
4694;SDS011;2361;49.540;8.390;2024-03-07T00:01:49;35.40;;;19.35;;
4694;SDS011;2361;49.540;8.390;2024-03-07T00:04:11;32.50;;;19.13;;
4694;SDS011;2361;49.540;8.390;2024-03-07T00:06:33;37.43;;;20.50;;
4694;SDS011;2361;49.540;8.390;2024-03-07T00:08:57;35.13;;;19.63;;
4694;SDS011;2361;49.540;8.390;2024-03-07T00:11:19;35.40;;;19.30;;
4694;SDS011;2361;49.540;8.390;2024-03-07T00:13:41;32.05;;;19.40;;
4694;SDS011;2361;49.540;8.390;2024-03-07T00:16:04;33.70;;;19.90;;
4694;SDS011;2361;49.540;8.390;2024-03-07T00:18:26;40.70;;;20.95;;
4694;SDS011;2361;49.540;8.390;2024-03-07T00:20:48;35.22;;;20.48;;
4694;SDS011;2361;49.540;8.390;2024-03-07T00:23:10;36.60;;;19.93;;
4694;SDS011;2361;49.540;8.390;2024-03-07T00:25:32;36.33;;;18.88;;
4694;SDS011;2361;49.540;8.390;2024-03-07T00:27:54;34.63;;;18.40;;
4694;SDS011;2361;49.540;8.390;2024-03-07T00:30:18;35.40;;;18.83;;
4694;SDS011;2361;49.540;8.390;2024-03-07T00:32:41;36.45;;;19.58;;
4694;SDS011;2361;49.540;8.390;2024-03-07T00:35:03;38.30;;;20.90;;
4694;SDS011;2361;49.540;8.390;2024-03-07T00:37:26;34.72;;;19.50;;
4694;SDS011;2361;49.540;8.390;2024-03-07T00:39:48;34.45;;;18.48;;
4694;SDS011;2361;49.540;8.390;2024-03-07T00:42:10;33.60;;;17.90;;
4694;SDS011;2361;49.540;8.390;2024-03-07T00:44:33;38.28;;;19.00;;
4694;SDS011;2361;49.540;8.390;2024-03-07T00:46:57;37.58;;;20.05;;
4694;SDS011;2361;49.540;8.390;2024-03-07T00:49:19;35.10;;;19.67;;
4694;SDS011;2361;49.540;8.390;2024-03-07T00:51:41;35.13;;;19.73;;
4694;SDS011;2361;49.540;8.390;2024-03-07T00:54:03;34.05;;;19.83;;
4694;SDS011;2361;49.540;8.390;2024-03-07T00:56:25;36.47;;;20.42;;
4694;SDS011;2361;49.540;8.390;2024-03-07T00:58:48;37.05;;;21.10;;
4694;SDS011;2361;49.540;8.390;2024-03-07T01:01:10;36.58;;;19.40;;
4694;SDS011;2361;49.540;8.390;2024-03-07T01:03:32;37.15;;;21.48;;
4694;SDS011;2361;49.540;8.390;2024-03-07T01:05:54;35.15;;;20.67;;
4694;SDS011;2361;49.540;8.390;2024-03-07T01:08:16;38.50;;;21.00;;
4694;SDS011;2361;49.540;8.390;2024-03-07T01:10:38;35.25;;;19.90;;
4694;SDS011;2361;49.540;8.390;2024-03-07T01:13:01;34.60;;;20.30;;
4694;SDS011;2361;49.540;8.390;2024-03-07T01:15:23;37.15;;;21.38;;
4694;SDS011;2361;49.540;8.390;2024-03-07T01:17:45;36.60;;;20.50;;
4694;SDS011;2361;49.540;8.390;2024-03-07T01:20:07;34.78;;;20.95;;
4694;SDS011;2361;49.540;8.390;2024-03-07T01:22:30;37.10;;;20.15;;
4694;SDS011;2361;49.540;8.390;2024-03-07T01:24:52;35.65;;;20.25;;
4694;SDS011;2361;49.540;8.390;2024-03-07T01:27:14;34.53;;;20.63;;
4694;SDS011;2361;49.540;8.390;2024-03-07T01:29:36;35.50;;;19.17;;
4694;SDS011;2361;49.540;8.390;2024-03-07T01:31:58;33.80;;;18.73;;
4694;SDS011;2361;49.540;8.390;2024-03-07T01:34:20;33.55;;;18.60;;
4694;SDS011;2361;49.540;8.390;2024-03-07T01:36:42;37.17;;;18.98;;
4694;SDS011;2361;49.540;8.390;2024-03-07T01:39:04;35.25;;;19.45;;
4694;SDS011;2361;49.540;8.390;2024-03-07T01:41:26;34.75;;;18.95;;
4694;SDS011;2361;49.540;8.390;2024-03-07T01:43:48;34.70;;;19.20;;
4694;SDS011;2361;49.540;8.390;2024-03-07T01:46:10;37.60;;;19.35;;
4694;SDS011;2361;49.540;8.390;2024-03-07T01:48:33;36.30;;;19.10;;
4694;SDS011;2361;49.540;8.390;2024-03-07T01:50:55;36.70;;;19.13;;
4694;SDS011;2361;49.540;8.390;2024-03-07T01:53:22;36.53;;;18.92;;
4694;SDS011;2361;49.540;8.390;2024-03-07T01:55:45;34.83;;;19.52;;
4694;SDS011;2361;49.540;8.390;2024-03-07T01:58:07;35.33;;;18.77;;
4694;SDS011;2361;49.540;8.390;2024-03-07T02:00:31;35.50;;;18.60;;
4694;SDS011;2361;49.540;8.390;2024-03-07T02:02:53;36.45;;;19.38;;
4694;SDS011;2361;49.540;8.390;2024-03-07T02:05:15;39.08;;;18.60;;
4694;SDS011;2361;49.540;8.390;2024-03-07T02:07:37;36.15;;;18.60;;
4694;SDS011;2361;49.540;8.390;2024-03-07T02:10:00;34.90;;;18.85;;
4694;SDS011;2361;49.540;8.390;2024-03-07T02:12:25;35.05;;;19.27;;
4694;SDS011;2361;49.540;8.390;2024-03-07T02:14:47;36.00;;;19.52;;
4694;SDS011;2361;49.540;8.390;2024-03-07T02:17:09;38.50;;;19.90;;
4694;SDS011;2361;49.540;8.390;2024-03-07T02:19:31;37.75;;;19.80;;
4694;SDS011;2361;49.540;8.390;2024-03-07T02:21:53;38.35;;;20.05;;
4694;SDS011;2361;49.540;8.390;2024-03-07T02:24:15;35.15;;;19.20;;
4694;SDS011;2361;49.540;8.390;2024-03-07T02:26:37;39.67;;;19.83;;
4694;SDS011;2361;49.540;8.390;2024-03-07T02:29:00;40.30;;;19.63;;
4694;SDS011;2361;49.540;8.390;2024-03-07T02:31:23;37.20;;;20.20;;
4694;SDS011;2361;49.540;8.390;2024-03-07T02:33:56;38.25;;;19.58;;
4694;SDS011;2361;49.540;8.390;2024-03-07T02:36:18;39.15;;;20.55;;
4694;SDS011;2361;49.540;8.390;2024-03-07T02:38:40;37.63;;;20.00;;
4694;SDS011;2361;49.540;8.390;2024-03-07T02:41:02;37.08;;;19.33;;
4694;SDS011;2361;49.540;8.390;2024-03-07T02:43:24;35.85;;;19.60;;
4694;SDS011;2361;49.540;8.390;2024-03-07T02:45:46;36.83;;;19.10;;
4694;SDS011;2361;49.540;8.390;2024-03-07T02:48:08;37.60;;;19.30;;
4694;SDS011;2361;49.540;8.390;2024-03-07T02:50:31;33.03;;;18.33;;
4694;SDS011;2361;49.540;8.390;2024-03-07T02:52:53;34.75;;;18.92;;
4694;SDS011;2361;49.540;8.390;2024-03-07T02:55:15;36.97;;;18.83;;
4694;SDS011;2361;49.540;8.390;2024-03-07T02:57:37;37.70;;;19.52;;
4694;SDS011;2361;49.540;8.390;2024-03-07T02:59:59;38.40;;;19.40;;
4694;SDS011;2361;49.540;8.390;2024-03-07T03:02:22;35.45;;;18.83;;
4694;SDS011;2361;49.540;8.390;2024-03-07T03:04:44;36.55;;;19.27;;
4694;SDS011;2361;49.540;8.390;2024-03-07T03:07:06;38.88;;;19.20;;
4694;SDS011;2361;49.540;8.390;2024-03-07T03:09:28;38.00;;;19.95;;
4694;SDS011;2361;49.540;8.390;2024-03-07T03:11:50;36.73;;;19.07;;
4694;SDS011;2361;49.540;8.390;2024-03-07T03:14:13;35.97;;;19.23;;
4694;SDS011;2361;49.540;8.390;2024-03-07T03:16:35;36.88;;;18.92;;
4694;SDS011;2361;49.540;8.390;2024-03-07T03:19:07;37.72;;;18.77;;
4694;SDS011;2361;49.540;8.390;2024-03-07T03:21:30;37.83;;;19.13;;
4694;SDS011;2361;49.540;8.390;2024-03-07T03:23:52;37.78;;;19.05;;
4694;SDS011;2361;49.540;8.390;2024-03-07T03:26:16;37.92;;;18.70;;
4694;SDS011;2361;49.540;8.390;2024-03-07T03:28:38;38.83;;;18.40;;
4694;SDS011;2361;49.540;8.390;2024-03-07T03:31:02;37.10;;;18.80;;
4694;SDS011;2361;49.540;8.390;2024-03-07T03:33:25;36.22;;;18.38;;
4694;SDS011;2361;49.540;8.390;2024-03-07T03:35:47;35.30;;;18.80;;
4694;SDS011;2361;49.540;8.390;2024-03-07T03:38:09;35.00;;;18.98;;
4694;SDS011;2361;49.540;8.390;2024-03-07T03:40:32;37.00;;;18.60;;
4694;SDS011;2361;49.540;8.390;2024-03-07T03:42:55;33.90;;;18.58;;
4694;SDS011;2361;49.540;8.390;2024-03-07T03:45:17;36.47;;;18.30;;
4694;SDS011;2361;49.540;8.390;2024-03-07T03:47:39;37.83;;;18.40;;
4694;SDS011;2361;49.540;8.390;2024-03-07T03:50:05;38.40;;;18.83;;
4694;SDS011;2361;49.540;8.390;2024-03-07T03:52:29;34.85;;;17.77;;
4694;SDS011;2361;49.540;8.390;2024-03-07T03:54:52;35.67;;;18.20;;
4694;SDS011;2361;49.540;8.390;2024-03-07T03:57:14;38.40;;;18.65;;
4694;SDS011;2361;49.540;8.390;2024-03-07T03:59:36;36.92;;;17.75;;
4694;SDS011;2361;49.540;8.390;2024-03-07T04:01:58;34.63;;;18.30;;
4694;SDS011;2361;49.540;8.390;2024-03-07T04:04:21;36.78;;;17.95;;
4694;SDS011;2361;49.540;8.390;2024-03-07T04:06:43;37.20;;;18.52;;
4694;SDS011;2361;49.540;8.390;2024-03-07T04:09:06;34.78;;;17.80;;
4694;SDS011;2361;49.540;8.390;2024-03-07T04:11:28;34.28;;;17.73;;
4694;SDS011;2361;49.540;8.390;2024-03-07T04:13:50;34.70;;;17.80;;
4694;SDS011;2361;49.540;8.390;2024-03-07T04:16:12;33.90;;;17.27;;
4694;SDS011;2361;49.540;8.390;2024-03-07T04:18:35;35.42;;;17.55;;
4694;SDS011;2361;49.540;8.390;2024-03-07T04:20:57;36.40;;;18.33;;
4694;SDS011;2361;49.540;8.390;2024-03-07T04:23:19;34.55;;;18.00;;
4694;SDS011;2361;49.540;8.390;2024-03-07T04:25:41;36.10;;;18.15;;
4694;SDS011;2361;49.540;8.390;2024-03-07T04:28:03;33.35;;;17.45;;
4694;SDS011;2361;49.540;8.390;2024-03-07T04:30:26;33.07;;;17.40;;
4694;SDS011;2361;49.540;8.390;2024-03-07T04:32:48;34.40;;;17.35;;
4694;SDS011;2361;49.540;8.390;2024-03-07T04:35:10;36.67;;;17.70;;
4694;SDS011;2361;49.540;8.390;2024-03-07T04:37:35;34.28;;;17.45;;
4694;SDS011;2361;49.540;8.390;2024-03-07T04:40:05;34.00;;;17.85;;
4694;SDS011;2361;49.540;8.390;2024-03-07T04:42:39;36.38;;;17.50;;
4694;SDS011;2361;49.540;8.390;2024-03-07T04:45:01;35.10;;;17.73;;
4694;SDS011;2361;49.540;8.390;2024-03-07T04:47:23;35.67;;;17.38;;
4694;SDS011;2361;49.540;8.390;2024-03-07T04:49:45;33.95;;;17.90;;
4694;SDS011;2361;49.540;8.390;2024-03-07T04:52:07;32.13;;;17.00;;
4694;SDS011;2361;49.540;8.390;2024-03-07T04:54:29;35.70;;;18.35;;
4694;SDS011;2361;49.540;8.390;2024-03-07T04:56:55;35.70;;;18.75;;
4694;SDS011;2361;49.540;8.390;2024-03-07T04:59:18;36.25;;;18.92;;
4694;SDS011;2361;49.540;8.390;2024-03-07T05:01:41;36.35;;;18.50;;
4694;SDS011;2361;49.540;8.390;2024-03-07T05:04:07;40.78;;;20.40;;
4694;SDS011;2361;49.540;8.390;2024-03-07T05:06:29;39.80;;;20.30;;
4694;SDS011;2361;49.540;8.390;2024-03-07T05:08:54;38.47;;;19.58;;
4694;SDS011;2361;49.540;8.390;2024-03-07T05:11:17;38.10;;;19.20;;
4694;SDS011;2361;49.540;8.390;2024-03-07T05:13:39;36.90;;;19.13;;
4694;SDS011;2361;49.540;8.390;2024-03-07T05:16:03;37.53;;;19.77;;
4694;SDS011;2361;49.540;8.390;2024-03-07T05:18:26;37.47;;;19.30;;
4694;SDS011;2361;49.540;8.390;2024-03-07T05:20:48;38.40;;;19.60;;
4694;SDS011;2361;49.540;8.390;2024-03-07T05:23:10;35.72;;;19.48;;
4694;SDS011;2361;49.540;8.390;2024-03-07T05:25:34;38.17;;;19.85;;
4694;SDS011;2361;49.540;8.390;2024-03-07T05:27:56;35.95;;;19.63;;
4694;SDS011;2361;49.540;8.390;2024-03-07T05:30:18;36.90;;;19.20;;
4694;SDS011;2361;49.540;8.390;2024-03-07T05:32:40;38.53;;;20.00;;
4694;SDS011;2361;49.540;8.390;2024-03-07T05:35:02;39.92;;;19.65;;
4694;SDS011;2361;49.540;8.390;2024-03-07T05:37:25;37.40;;;18.42;;
4694;SDS011;2361;49.540;8.390;2024-03-07T05:39:50;34.83;;;18.67;;
4694;SDS011;2361;49.540;8.390;2024-03-07T05:42:12;37.00;;;19.15;;
4694;SDS011;2361;49.540;8.390;2024-03-07T05:44:35;35.03;;;17.65;;
4694;SDS011;2361;49.540;8.390;2024-03-07T05:46:57;36.38;;;18.90;;
4694;SDS011;2361;49.540;8.390;2024-03-07T05:49:19;36.35;;;19.15;;
4694;SDS011;2361;49.540;8.390;2024-03-07T05:51:42;35.08;;;17.83;;
4694;SDS011;2361;49.540;8.390;2024-03-07T05:54:06;39.47;;;19.85;;
4694;SDS011;2361;49.540;8.390;2024-03-07T05:56:28;38.92;;;18.20;;
4694;SDS011;2361;49.540;8.390;2024-03-07T05:58:50;37.13;;;18.53;;
4694;SDS011;2361;49.540;8.390;2024-03-07T06:01:12;38.50;;;19.05;;
4694;SDS011;2361;49.540;8.390;2024-03-07T06:03:34;38.23;;;19.10;;
4694;SDS011;2361;49.540;8.390;2024-03-07T06:05:56;39.53;;;18.98;;
4694;SDS011;2361;49.540;8.390;2024-03-07T06:08:18;36.88;;;18.73;;
4694;SDS011;2361;49.540;8.390;2024-03-07T06:10:42;36.28;;;18.13;;
4694;SDS011;2361;49.540;8.390;2024-03-07T06:13:06;37.13;;;18.75;;
4694;SDS011;2361;49.540;8.390;2024-03-07T06:15:31;37.97;;;19.10;;
4694;SDS011;2361;49.540;8.390;2024-03-07T06:17:53;34.58;;;17.73;;
4694;SDS011;2361;49.540;8.390;2024-03-07T06:20:15;35.65;;;18.25;;
4694;SDS011;2361;49.540;8.390;2024-03-07T06:22:46;36.15;;;17.50;;
4694;SDS011;2361;49.540;8.390;2024-03-07T06:25:08;37.07;;;18.00;;
4694;SDS011;2361;49.540;8.390;2024-03-07T06:27:40;34.15;;;17.25;;
4694;SDS011;2361;49.540;8.390;2024-03-07T06:30:10;32.33;;;17.20;;
4694;SDS011;2361;49.540;8.390;2024-03-07T06:32:32;32.67;;;17.20;;
4694;SDS011;2361;49.540;8.390;2024-03-07T06:34:54;35.25;;;18.30;;
4694;SDS011;2361;49.540;8.390;2024-03-07T06:37:16;30.40;;;16.65;;
4694;SDS011;2361;49.540;8.390;2024-03-07T06:39:40;31.30;;;17.00;;
4694;SDS011;2361;49.540;8.390;2024-03-07T06:42:02;31.70;;;16.95;;
4694;SDS011;2361;49.540;8.390;2024-03-07T06:44:25;34.22;;;16.80;;
4694;SDS011;2361;49.540;8.390;2024-03-07T06:46:48;31.30;;;17.10;;
4694;SDS011;2361;49.540;8.390;2024-03-07T06:49:10;29.83;;;16.40;;
4694;SDS011;2361;49.540;8.390;2024-03-07T06:51:32;29.60;;;16.73;;
4694;SDS011;2361;49.540;8.390;2024-03-07T06:53:54;32.83;;;16.83;;
4694;SDS011;2361;49.540;8.390;2024-03-07T06:56:17;30.80;;;16.80;;
4694;SDS011;2361;49.540;8.390;2024-03-07T06:58:39;32.67;;;17.20;;
4694;SDS011;2361;49.540;8.390;2024-03-07T07:01:01;29.50;;;16.63;;
4694;SDS011;2361;49.540;8.390;2024-03-07T07:03:28;31.53;;;17.20;;
4694;SDS011;2361;49.540;8.390;2024-03-07T07:05:50;32.28;;;17.30;;
4694;SDS011;2361;49.540;8.390;2024-03-07T07:08:12;31.63;;;16.60;;
4694;SDS011;2361;49.540;8.390;2024-03-07T07:10:37;29.17;;;16.45;;
4694;SDS011;2361;49.540;8.390;2024-03-07T07:13:01;30.23;;;16.17;;
4694;SDS011;2361;49.540;8.390;2024-03-07T07:15:25;29.45;;;15.80;;
4694;SDS011;2361;49.540;8.390;2024-03-07T07:17:47;29.83;;;16.53;;
4694;SDS011;2361;49.540;8.390;2024-03-07T07:20:11;30.95;;;16.17;;
4694;SDS011;2361;49.540;8.390;2024-03-07T07:22:36;31.63;;;16.45;;
4694;SDS011;2361;49.540;8.390;2024-03-07T07:24:59;35.80;;;16.95;;
4694;SDS011;2361;49.540;8.390;2024-03-07T07:27:21;29.85;;;16.50;;
4694;SDS011;2361;49.540;8.390;2024-03-07T07:29:44;33.75;;;17.60;;
4694;SDS011;2361;49.540;8.390;2024-03-07T07:32:07;29.23;;;17.25;;
4694;SDS011;2361;49.540;8.390;2024-03-07T07:34:29;32.50;;;16.92;;
4694;SDS011;2361;49.540;8.390;2024-03-07T07:36:51;31.77;;;17.15;;
4694;SDS011;2361;49.540;8.390;2024-03-07T07:39:14;33.10;;;16.92;;
4694;SDS011;2361;49.540;8.390;2024-03-07T07:41:38;31.00;;;16.40;;
4694;SDS011;2361;49.540;8.390;2024-03-07T07:44:00;27.40;;;15.93;;
4694;SDS011;2361;49.540;8.390;2024-03-07T07:46:22;30.65;;;16.65;;
4694;SDS011;2361;49.540;8.390;2024-03-07T07:48:44;29.38;;;16.65;;
4694;SDS011;2361;49.540;8.390;2024-03-07T07:51:06;26.38;;;15.40;;
4694;SDS011;2361;49.540;8.390;2024-03-07T07:53:28;26.37;;;15.23;;
4694;SDS011;2361;49.540;8.390;2024-03-07T07:55:50;28.08;;;16.20;;
4694;SDS011;2361;49.540;8.390;2024-03-07T07:58:13;28.38;;;16.70;;
4694;SDS011;2361;49.540;8.390;2024-03-07T08:00:35;27.42;;;16.17;;
4694;SDS011;2361;49.540;8.390;2024-03-07T08:02:58;28.50;;;16.10;;
4694;SDS011;2361;49.540;8.390;2024-03-07T08:05:28;25.17;;;15.00;;
4694;SDS011;2361;49.540;8.390;2024-03-07T08:07:58;26.00;;;15.13;;
4694;SDS011;2361;49.540;8.390;2024-03-07T08:10:24;23.83;;;15.90;;
4694;SDS011;2361;49.540;8.390;2024-03-07T08:12:51;25.55;;;15.80;;
4694;SDS011;2361;49.540;8.390;2024-03-07T08:15:13;25.17;;;16.00;;
4694;SDS011;2361;49.540;8.390;2024-03-07T08:17:36;22.67;;;14.93;;
4694;SDS011;2361;49.540;8.390;2024-03-07T08:19:58;25.95;;;15.00;;
4694;SDS011;2361;49.540;8.390;2024-03-07T08:22:20;23.50;;;15.43;;
4694;SDS011;2361;49.540;8.390;2024-03-07T08:24:43;24.35;;;15.43;;
4694;SDS011;2361;49.540;8.390;2024-03-07T08:27:05;23.20;;;14.50;;
4694;SDS011;2361;49.540;8.390;2024-03-07T08:29:27;17.65;;;11.20;;
4694;SDS011;2361;49.540;8.390;2024-03-07T08:31:49;18.92;;;12.32;;
4694;SDS011;2361;49.540;8.390;2024-03-07T08:34:11;19.13;;;12.55;;
4694;SDS011;2361;49.540;8.390;2024-03-07T08:36:34;18.90;;;12.95;;
4694;SDS011;2361;49.540;8.390;2024-03-07T08:38:57;16.52;;;12.13;;
4694;SDS011;2361;49.540;8.390;2024-03-07T08:41:19;19.02;;;12.82;;
4694;SDS011;2361;49.540;8.390;2024-03-07T08:43:41;17.23;;;9.43;;
4694;SDS011;2361;49.540;8.390;2024-03-07T08:46:03;17.80;;;12.10;;
4694;SDS011;2361;49.540;8.390;2024-03-07T08:48:25;8.07;;;5.50;;
4694;SDS011;2361;49.540;8.390;2024-03-07T08:50:47;14.27;;;7.82;;
4694;SDS011;2361;49.540;8.390;2024-03-07T08:53:09;12.80;;;7.18;;
4694;SDS011;2361;49.540;8.390;2024-03-07T08:55:31;16.88;;;9.65;;
4694;SDS011;2361;49.540;8.390;2024-03-07T08:57:53;13.45;;;8.07;;
4694;SDS011;2361;49.540;8.390;2024-03-07T09:00:16;13.63;;;7.70;;
4694;SDS011;2361;49.540;8.390;2024-03-07T09:02:47;15.93;;;10.55;;
4694;SDS011;2361;49.540;8.390;2024-03-07T09:05:13;16.63;;;9.80;;
4694;SDS011;2361;49.540;8.390;2024-03-07T09:07:37;12.55;;;7.50;;
4694;SDS011;2361;49.540;8.390;2024-03-07T09:09:59;15.60;;;9.70;;
4694;SDS011;2361;49.540;8.390;2024-03-07T09:12:21;14.18;;;8.02;;
4694;SDS011;2361;49.540;8.390;2024-03-07T09:14:43;15.50;;;7.07;;
4694;SDS011;2361;49.540;8.390;2024-03-07T09:17:08;9.52;;;5.22;;
4694;SDS011;2361;49.540;8.390;2024-03-07T09:19:31;11.05;;;6.30;;
4694;SDS011;2361;49.540;8.390;2024-03-07T09:21:53;12.48;;;8.55;;
4694;SDS011;2361;49.540;8.390;2024-03-07T09:24:15;14.15;;;7.30;;
4694;SDS011;2361;49.540;8.390;2024-03-07T09:26:38;15.00;;;8.45;;
4694;SDS011;2361;49.540;8.390;2024-03-07T09:29:00;14.18;;;9.60;;
4694;SDS011;2361;49.540;8.390;2024-03-07T09:31:29;16.73;;;11.07;;
4694;SDS011;2361;49.540;8.390;2024-03-07T09:33:52;13.07;;;8.35;;
4694;SDS011;2361;49.540;8.390;2024-03-07T09:36:15;15.95;;;10.20;;
4694;SDS011;2361;49.540;8.390;2024-03-07T09:38:37;15.30;;;10.00;;
4694;SDS011;2361;49.540;8.390;2024-03-07T09:40:59;17.88;;;11.23;;
4694;SDS011;2361;49.540;8.390;2024-03-07T09:43:21;16.83;;;11.25;;
4694;SDS011;2361;49.540;8.390;2024-03-07T09:45:45;16.95;;;12.32;;
4694;SDS011;2361;49.540;8.390;2024-03-07T09:48:09;15.35;;;10.50;;
4694;SDS011;2361;49.540;8.390;2024-03-07T09:50:32;17.67;;;12.27;;
4694;SDS011;2361;49.540;8.390;2024-03-07T09:52:54;14.60;;;8.85;;
4694;SDS011;2361;49.540;8.390;2024-03-07T09:55:17;13.60;;;8.80;;
4694;SDS011;2361;49.540;8.390;2024-03-07T09:57:41;18.13;;;11.53;;
4694;SDS011;2361;49.540;8.390;2024-03-07T10:00:04;17.60;;;10.90;;
4694;SDS011;2361;49.540;8.390;2024-03-07T10:02:29;18.65;;;13.05;;
4694;SDS011;2361;49.540;8.390;2024-03-07T10:04:56;14.40;;;8.70;;
4694;SDS011;2361;49.540;8.390;2024-03-07T10:07:19;18.92;;;10.30;;
4694;SDS011;2361;49.540;8.390;2024-03-07T10:09:40;14.82;;;8.38;;
4694;SDS011;2361;49.540;8.390;2024-03-07T10:12:03;19.40;;;11.45;;
4694;SDS011;2361;49.540;8.390;2024-03-07T10:14:25;16.20;;;8.82;;
4694;SDS011;2361;49.540;8.390;2024-03-07T10:16:47;18.30;;;11.48;;
4694;SDS011;2361;49.540;8.390;2024-03-07T10:19:09;17.17;;;11.25;;
4694;SDS011;2361;49.540;8.390;2024-03-07T10:21:33;16.73;;;9.70;;
4694;SDS011;2361;49.540;8.390;2024-03-07T10:24:07;14.80;;;8.32;;
4694;SDS011;2361;49.540;8.390;2024-03-07T10:26:31;17.80;;;9.90;;
4694;SDS011;2361;49.540;8.390;2024-03-07T10:28:56;15.95;;;10.27;;
4694;SDS011;2361;49.540;8.390;2024-03-07T10:31:28;19.70;;;11.48;;
4694;SDS011;2361;49.540;8.390;2024-03-07T10:33:50;18.67;;;11.03;;
4694;SDS011;2361;49.540;8.390;2024-03-07T10:36:12;18.60;;;11.23;;
4694;SDS011;2361;49.540;8.390;2024-03-07T10:38:37;19.77;;;12.00;;
4694;SDS011;2361;49.540;8.390;2024-03-07T10:40:58;16.70;;;10.45;;
4694;SDS011;2361;49.540;8.390;2024-03-07T10:43:22;18.65;;;11.75;;
4694;SDS011;2361;49.540;8.390;2024-03-07T10:45:45;17.27;;;10.57;;
4694;SDS011;2361;49.540;8.390;2024-03-07T10:48:09;18.13;;;11.03;;
4694;SDS011;2361;49.540;8.390;2024-03-07T10:58:58;16.50;;;9.93;;
4694;SDS011;2361;49.540;8.390;2024-03-07T11:01:53;15.15;;;9.75;;
4694;SDS011;2361;49.540;8.390;2024-03-07T11:04:22;16.50;;;9.70;;
4694;SDS011;2361;49.540;8.390;2024-03-07T11:06:45;18.52;;;12.25;;
4694;SDS011;2361;49.540;8.390;2024-03-07T11:09:07;19.27;;;11.90;;
4694;SDS011;2361;49.540;8.390;2024-03-07T11:11:32;17.20;;;10.53;;
4694;SDS011;2361;49.540;8.390;2024-03-07T11:13:54;18.03;;;11.13;;
4694;SDS011;2361;49.540;8.390;2024-03-07T11:16:16;9.68;;;5.40;;
4694;SDS011;2361;49.540;8.390;2024-03-07T11:18:39;15.40;;;8.85;;
4694;SDS011;2361;49.540;8.390;2024-03-07T11:21:01;15.60;;;8.98;;
4694;SDS011;2361;49.540;8.390;2024-03-07T11:26:06;20.42;;;10.80;;
4694;SDS011;2361;49.540;8.390;2024-03-07T11:28:30;13.95;;;7.45;;
4694;SDS011;2361;49.540;8.390;2024-03-07T11:30:52;22.10;;;11.30;;
4694;SDS011;2361;49.540;8.390;2024-03-07T11:33:14;20.27;;;11.10;;
4694;SDS011;2361;49.540;8.390;2024-03-07T11:35:38;20.60;;;11.35;;
4694;SDS011;2361;49.540;8.390;2024-03-07T11:38:02;18.95;;;11.27;;
4694;SDS011;2361;49.540;8.390;2024-03-07T11:42:52;19.75;;;11.75;;
4694;SDS011;2361;49.540;8.390;2024-03-07T11:45:18;15.35;;;8.77;;
4694;SDS011;2361;49.540;8.390;2024-03-07T11:47:47;15.65;;;7.80;;
4694;SDS011;2361;49.540;8.390;2024-03-07T11:50:10;19.60;;;11.10;;
4694;SDS011;2361;49.540;8.390;2024-03-07T11:52:33;10.05;;;5.65;;
4694;SDS011;2361;49.540;8.390;2024-03-07T11:54:57;22.27;;;10.82;;
4694;SDS011;2361;49.540;8.390;2024-03-07T11:57:26;22.88;;;12.00;;
4694;SDS011;2361;49.540;8.390;2024-03-07T11:59:53;19.35;;;12.40;;
4694;SDS011;2361;49.540;8.390;2024-03-07T12:02:15;21.75;;;12.18;;
4694;SDS011;2361;49.540;8.390;2024-03-07T12:04:39;19.92;;;11.48;;
4694;SDS011;2361;49.540;8.390;2024-03-07T12:07:01;22.17;;;13.00;;
4694;SDS011;2361;49.540;8.390;2024-03-07T12:09:27;21.40;;;12.20;;
4694;SDS011;2361;49.540;8.390;2024-03-07T12:11:49;21.17;;;11.88;;
4694;SDS011;2361;49.540;8.390;2024-03-07T12:14:14;19.33;;;11.73;;
4694;SDS011;2361;49.540;8.390;2024-03-07T12:16:36;20.27;;;12.90;;
4694;SDS011;2361;49.540;8.390;2024-03-07T12:18:57;19.52;;;11.50;;
4694;SDS011;2361;49.540;8.390;2024-03-07T12:21:19;20.98;;;13.98;;
4694;SDS011;2361;49.540;8.390;2024-03-07T12:23:41;20.55;;;13.00;;
4694;SDS011;2361;49.540;8.390;2024-03-07T12:26:04;21.05;;;12.05;;
4694;SDS011;2361;49.540;8.390;2024-03-07T12:28:27;20.35;;;10.50;;
4694;SDS011;2361;49.540;8.390;2024-03-07T12:30:54;22.15;;;11.60;;
4694;SDS011;2361;49.540;8.390;2024-03-07T12:33:18;21.63;;;12.13;;
4694;SDS011;2361;49.540;8.390;2024-03-07T12:35:41;19.35;;;11.60;;
4694;SDS011;2361;49.540;8.390;2024-03-07T12:38:03;20.95;;;10.10;;
4694;SDS011;2361;49.540;8.390;2024-03-07T12:40:25;19.10;;;11.60;;
4694;SDS011;2361;49.540;8.390;2024-03-07T12:42:51;19.60;;;11.15;;
4694;SDS011;2361;49.540;8.390;2024-03-07T12:45:17;17.57;;;9.47;;
4694;SDS011;2361;49.540;8.390;2024-03-07T12:47:40;18.27;;;10.85;;
4694;SDS011;2361;49.540;8.390;2024-03-07T12:50:01;21.23;;;12.57;;
4694;SDS011;2361;49.540;8.390;2024-03-07T12:52:28;18.05;;;11.30;;
4694;SDS011;2361;49.540;8.390;2024-03-07T12:54:50;19.52;;;10.73;;
4694;SDS011;2361;49.540;8.390;2024-03-07T12:57:13;19.10;;;11.25;;
4694;SDS011;2361;49.540;8.390;2024-03-07T12:59:35;17.08;;;11.75;;
4694;SDS011;2361;49.540;8.390;2024-03-07T13:02:03;18.00;;;11.05;;
4694;SDS011;2361;49.540;8.390;2024-03-07T13:04:27;17.40;;;11.18;;
4694;SDS011;2361;49.540;8.390;2024-03-07T13:06:49;15.38;;;10.18;;
4694;SDS011;2361;49.540;8.390;2024-03-07T13:09:11;16.40;;;9.80;;
4694;SDS011;2361;49.540;8.390;2024-03-07T13:11:33;17.25;;;10.45;;
4694;SDS011;2361;49.540;8.390;2024-03-07T13:13:55;14.55;;;9.55;;
4694;SDS011;2361;49.540;8.390;2024-03-07T13:16:20;15.60;;;9.90;;
4694;SDS011;2361;49.540;8.390;2024-03-07T13:18:42;14.40;;;9.60;;
4694;SDS011;2361;49.540;8.390;2024-03-07T13:21:04;13.20;;;9.10;;
4694;SDS011;2361;49.540;8.390;2024-03-07T13:23:28;14.23;;;9.40;;
4694;SDS011;2361;49.540;8.390;2024-03-07T13:25:50;14.73;;;8.73;;
4694;SDS011;2361;49.540;8.390;2024-03-07T13:28:12;13.48;;;9.75;;
4694;SDS011;2361;49.540;8.390;2024-03-07T13:30:37;10.32;;;6.03;;
4694;SDS011;2361;49.540;8.390;2024-03-07T13:32:59;14.33;;;8.83;;
4694;SDS011;2361;49.540;8.390;2024-03-07T13:35:25;9.38;;;5.68;;
4694;SDS011;2361;49.540;8.390;2024-03-07T13:37:48;9.55;;;5.18;;
4694;SDS011;2361;49.540;8.390;2024-03-07T13:40:11;9.57;;;5.40;;
4694;SDS011;2361;49.540;8.390;2024-03-07T13:42:44;12.90;;;8.30;;
4694;SDS011;2361;49.540;8.390;2024-03-07T13:45:05;11.98;;;7.30;;
4694;SDS011;2361;49.540;8.390;2024-03-07T13:47:32;12.25;;;7.97;;
4694;SDS011;2361;49.540;8.390;2024-03-07T13:49:54;11.07;;;7.78;;
4694;SDS011;2361;49.540;8.390;2024-03-07T13:52:16;12.48;;;8.20;;
4694;SDS011;2361;49.540;8.390;2024-03-07T13:54:40;12.95;;;9.00;;
4694;SDS011;2361;49.540;8.390;2024-03-07T13:57:06;9.75;;;6.47;;
4694;SDS011;2361;49.540;8.390;2024-03-07T14:07:57;15.30;;;8.63;;
4694;SDS011;2361;49.540;8.390;2024-03-07T14:24:36;12.80;;;8.00;;
4694;SDS011;2361;49.540;8.390;2024-03-07T14:32:14;11.70;;;5.47;;
4694;SDS011;2361;49.540;8.390;2024-03-07T14:37:37;15.65;;;7.97;;
4694;SDS011;2361;49.540;8.390;2024-03-07T14:40:11;13.30;;;8.00;;
4694;SDS011;2361;49.540;8.390;2024-03-07T14:42:36;14.68;;;8.15;;
4694;SDS011;2361;49.540;8.390;2024-03-07T14:45:04;9.73;;;5.93;;
4694;SDS011;2361;49.540;8.390;2024-03-07T14:47:29;13.35;;;8.00;;
4694;SDS011;2361;49.540;8.390;2024-03-07T14:49:51;10.93;;;6.45;;
4694;SDS011;2361;49.540;8.390;2024-03-07T14:52:13;16.17;;;9.37;;
4694;SDS011;2361;49.540;8.390;2024-03-07T14:54:39;13.70;;;8.23;;
4694;SDS011;2361;49.540;8.390;2024-03-07T14:57:04;12.68;;;7.35;;
4694;SDS011;2361;49.540;8.390;2024-03-07T14:59:28;11.85;;;6.80;;
4694;SDS011;2361;49.540;8.390;2024-03-07T15:01:50;13.32;;;8.60;;
4694;SDS011;2361;49.540;8.390;2024-03-07T15:04:12;14.27;;;8.80;;
4694;SDS011;2361;49.540;8.390;2024-03-07T15:06:35;16.52;;;9.23;;
4694;SDS011;2361;49.540;8.390;2024-03-07T15:08:57;11.60;;;6.93;;
4694;SDS011;2361;49.540;8.390;2024-03-07T15:11:22;11.40;;;7.80;;